DTTG

Gabès Matmata International Airport

Gabès, Tunisia
METAR DTTG 140300Z 21016KT CAVOK 15/M00 Q1009 NOSIG
Observed Flight Rules
Dec-14 @ 03:00 UTC (56 minutes ago) Visual Flight Rules
Wind Visibility Clouds
210° at 16 knots 10,000+ meters
  • Clear skies
Temperatures Readings
Current 15°C / 59°F
Dewpoint 0°C / 32°F
Humidity 36%
Altimeter 29.79" Hg
Pressure 1009 hPa
Elevation 5
METAR DTTG 140300Z 21016KT CAVOK 15/M00 Q1009 NOSIG
Observed Flight Rules
Dec-14 @ 03:00 UTC
(56 minutes ago)
VFR
Wind Visibility
210° at 16 knots 10,000+ meters
Clouds
  • Clear skies
Temperature Dewpoint
15°C / 59°F 0°C / 32°F
Humidity Altimeter Pressure
36% 29.79" Hg 1009 hPa